sensor_id;sensor_type;location;lat;lon;timestamp;P1;durP1;ratioP1;P2;durP2;ratioP2
25758;SDS011;13604;52.496;13.456;2022-07-23T00:01:02;16.35;;;7.50;;
25758;SDS011;13604;52.496;13.456;2022-07-23T00:03:27;12.65;;;7.00;;
25758;SDS011;13604;52.496;13.456;2022-07-23T00:05:52;10.70;;;7.32;;
25758;SDS011;13604;52.496;13.456;2022-07-23T00:08:18;8.80;;;6.95;;
25758;SDS011;13604;52.496;13.456;2022-07-23T00:10:43;12.25;;;8.23;;
25758;SDS011;13604;52.496;13.456;2022-07-23T00:13:08;11.43;;;6.88;;
25758;SDS011;13604;52.496;13.456;2022-07-23T00:15:34;10.45;;;6.85;;
25758;SDS011;13604;52.496;13.456;2022-07-23T00:17:59;16.40;;;7.35;;
25758;SDS011;13604;52.496;13.456;2022-07-23T00:20:24;12.77;;;6.55;;
25758;SDS011;13604;52.496;13.456;2022-07-23T00:22:50;9.02;;;6.80;;
25758;SDS011;13604;52.496;13.456;2022-07-23T00:25:18;9.18;;;6.57;;
25758;SDS011;13604;52.496;13.456;2022-07-23T00:27:44;7.38;;;6.53;;
25758;SDS011;13604;52.496;13.456;2022-07-23T00:30:09;10.07;;;6.72;;
25758;SDS011;13604;52.496;13.456;2022-07-23T00:32:48;7.90;;;6.10;;
25758;SDS011;13604;52.496;13.456;2022-07-23T00:35:16;8.90;;;6.53;;
25758;SDS011;13604;52.496;13.456;2022-07-23T00:37:44;7.53;;;6.00;;
25758;SDS011;13604;52.496;13.456;2022-07-23T00:40:09;8.18;;;5.85;;
25758;SDS011;13604;52.496;13.456;2022-07-23T00:42:35;9.13;;;6.32;;
25758;SDS011;13604;52.496;13.456;2022-07-23T00:45:01;13.70;;;7.03;;
25758;SDS011;13604;52.496;13.456;2022-07-23T00:47:26;9.60;;;6.68;;
25758;SDS011;13604;52.496;13.456;2022-07-23T00:49:51;10.45;;;7.20;;
25758;SDS011;13604;52.496;13.456;2022-07-23T00:52:17;12.07;;;6.35;;
25758;SDS011;13604;52.496;13.456;2022-07-23T00:54:42;11.68;;;6.68;;
25758;SDS011;13604;52.496;13.456;2022-07-23T00:57:08;12.75;;;6.35;;
25758;SDS011;13604;52.496;13.456;2022-07-23T00:59:33;9.27;;;6.30;;
25758;SDS011;13604;52.496;13.456;2022-07-23T01:01:59;9.85;;;6.28;;
25758;SDS011;13604;52.496;13.456;2022-07-23T01:04:24;7.82;;;6.18;;
25758;SDS011;13604;52.496;13.456;2022-07-23T01:06:49;10.85;;;6.70;;
25758;SDS011;13604;52.496;13.456;2022-07-23T01:09:15;11.32;;;6.38;;
25758;SDS011;13604;52.496;13.456;2022-07-23T01:11:40;7.70;;;6.07;;
25758;SDS011;13604;52.496;13.456;2022-07-23T01:14:10;9.82;;;6.20;;
25758;SDS011;13604;52.496;13.456;2022-07-23T01:16:43;11.63;;;6.35;;
25758;SDS011;13604;52.496;13.456;2022-07-23T01:19:09;12.52;;;6.57;;
25758;SDS011;13604;52.496;13.456;2022-07-23T01:21:35;10.23;;;6.25;;
25758;SDS011;13604;52.496;13.456;2022-07-23T01:24:02;10.00;;;6.55;;
25758;SDS011;13604;52.496;13.456;2022-07-23T01:26:29;9.82;;;7.55;;
25758;SDS011;13604;52.496;13.456;2022-07-23T01:28:54;11.15;;;6.35;;
25758;SDS011;13604;52.496;13.456;2022-07-23T01:31:19;9.02;;;6.70;;
25758;SDS011;13604;52.496;13.456;2022-07-23T01:33:45;9.30;;;6.05;;
25758;SDS011;13604;52.496;13.456;2022-07-23T01:36:10;9.55;;;6.38;;
25758;SDS011;13604;52.496;13.456;2022-07-23T01:38:35;6.40;;;5.72;;
25758;SDS011;13604;52.496;13.456;2022-07-23T01:41:01;10.88;;;7.50;;
25758;SDS011;13604;52.496;13.456;2022-07-23T01:43:26;9.32;;;6.22;;
25758;SDS011;13604;52.496;13.456;2022-07-23T01:45:52;13.15;;;7.45;;
25758;SDS011;13604;52.496;13.456;2022-07-23T01:48:17;13.75;;;7.15;;
25758;SDS011;13604;52.496;13.456;2022-07-23T01:50:42;8.38;;;6.82;;
25758;SDS011;13604;52.496;13.456;2022-07-23T01:53:08;11.52;;;6.32;;
25758;SDS011;13604;52.496;13.456;2022-07-23T01:55:33;9.75;;;6.70;;
25758;SDS011;13604;52.496;13.456;2022-07-23T01:57:58;9.30;;;7.18;;
25758;SDS011;13604;52.496;13.456;2022-07-23T02:00:24;10.35;;;7.43;;
25758;SDS011;13604;52.496;13.456;2022-07-23T02:02:49;13.05;;;7.63;;
25758;SDS011;13604;52.496;13.456;2022-07-23T02:05:14;10.57;;;7.53;;
25758;SDS011;13604;52.496;13.456;2022-07-23T02:07:40;12.18;;;7.43;;
25758;SDS011;13604;52.496;13.456;2022-07-23T02:10:05;11.57;;;7.47;;
25758;SDS011;13604;52.496;13.456;2022-07-23T02:12:31;11.65;;;7.70;;
25758;SDS011;13604;52.496;13.456;2022-07-23T02:14:56;9.43;;;7.22;;
25758;SDS011;13604;52.496;13.456;2022-07-23T02:17:21;13.07;;;7.32;;
25758;SDS011;13604;52.496;13.456;2022-07-23T02:19:47;10.70;;;7.13;;
25758;SDS011;13604;52.496;13.456;2022-07-23T02:22:12;8.85;;;6.97;;
25758;SDS011;13604;52.496;13.456;2022-07-23T02:24:37;10.82;;;6.50;;
25758;SDS011;13604;52.496;13.456;2022-07-23T02:27:03;8.40;;;5.90;;
25758;SDS011;13604;52.496;13.456;2022-07-23T02:29:28;11.98;;;6.95;;
25758;SDS011;13604;52.496;13.456;2022-07-23T02:31:53;12.98;;;6.95;;
25758;SDS011;13604;52.496;13.456;2022-07-23T02:34:19;10.13;;;6.20;;
25758;SDS011;13604;52.496;13.456;2022-07-23T02:36:44;9.82;;;6.03;;
25758;SDS011;13604;52.496;13.456;2022-07-23T02:39:09;10.73;;;6.55;;
25758;SDS011;13604;52.496;13.456;2022-07-23T02:41:35;16.05;;;7.20;;
25758;SDS011;13604;52.496;13.456;2022-07-23T02:44:00;8.77;;;6.68;;
25758;SDS011;13604;52.496;13.456;2022-07-23T02:46:26;11.40;;;6.75;;
25758;SDS011;13604;52.496;13.456;2022-07-23T02:48:51;8.18;;;6.03;;
25758;SDS011;13604;52.496;13.456;2022-07-23T02:51:16;13.77;;;6.80;;
25758;SDS011;13604;52.496;13.456;2022-07-23T02:53:42;10.32;;;6.43;;
25758;SDS011;13604;52.496;13.456;2022-07-23T02:56:07;10.43;;;6.85;;
25758;SDS011;13604;52.496;13.456;2022-07-23T02:58:33;9.15;;;6.35;;
25758;SDS011;13604;52.496;13.456;2022-07-23T03:00:58;11.02;;;7.05;;
25758;SDS011;13604;52.496;13.456;2022-07-23T03:03:23;10.68;;;6.10;;
25758;SDS011;13604;52.496;13.456;2022-07-23T03:05:49;8.43;;;6.13;;
25758;SDS011;13604;52.496;13.456;2022-07-23T03:08:14;11.07;;;6.72;;
25758;SDS011;13604;52.496;13.456;2022-07-23T03:10:39;11.80;;;6.90;;
25758;SDS011;13604;52.496;13.456;2022-07-23T03:13:05;11.20;;;6.50;;
25758;SDS011;13604;52.496;13.456;2022-07-23T03:15:30;11.18;;;7.13;;
25758;SDS011;13604;52.496;13.456;2022-07-23T03:17:55;10.02;;;6.03;;
25758;SDS011;13604;52.496;13.456;2022-07-23T03:20:21;11.88;;;7.10;;
25758;SDS011;13604;52.496;13.456;2022-07-23T03:22:46;9.60;;;6.10;;
25758;SDS011;13604;52.496;13.456;2022-07-23T03:25:11;10.05;;;6.75;;
25758;SDS011;13604;52.496;13.456;2022-07-23T03:27:37;11.57;;;7.03;;
25758;SDS011;13604;52.496;13.456;2022-07-23T03:30:02;11.45;;;6.75;;
25758;SDS011;13604;52.496;13.456;2022-07-23T03:32:28;14.10;;;6.93;;
25758;SDS011;13604;52.496;13.456;2022-07-23T03:34:54;11.73;;;7.82;;
25758;SDS011;13604;52.496;13.456;2022-07-23T03:37:19;14.95;;;6.45;;
25758;SDS011;13604;52.496;13.456;2022-07-23T03:39:45;15.93;;;7.28;;
25758;SDS011;13604;52.496;13.456;2022-07-23T03:42:10;12.43;;;7.07;;
25758;SDS011;13604;52.496;13.456;2022-07-23T03:44:36;8.98;;;6.13;;
25758;SDS011;13604;52.496;13.456;2022-07-23T03:47:04;12.52;;;6.20;;
25758;SDS011;13604;52.496;13.456;2022-07-23T03:49:30;8.02;;;5.53;;
25758;SDS011;13604;52.496;13.456;2022-07-23T03:51:56;8.20;;;5.50;;
25758;SDS011;13604;52.496;13.456;2022-07-23T03:54:21;9.15;;;5.53;;
25758;SDS011;13604;52.496;13.456;2022-07-23T03:56:46;11.50;;;5.55;;
25758;SDS011;13604;52.496;13.456;2022-07-23T03:59:12;9.93;;;6.10;;
25758;SDS011;13604;52.496;13.456;2022-07-23T04:01:37;10.93;;;5.32;;
25758;SDS011;13604;52.496;13.456;2022-07-23T04:04:02;9.02;;;5.53;;
25758;SDS011;13604;52.496;13.456;2022-07-23T04:06:28;10.27;;;5.13;;
25758;SDS011;13604;52.496;13.456;2022-07-23T04:08:53;10.25;;;5.32;;
25758;SDS011;13604;52.496;13.456;2022-07-23T04:11:18;11.48;;;4.88;;
25758;SDS011;13604;52.496;13.456;2022-07-23T04:13:44;7.47;;;4.53;;
25758;SDS011;13604;52.496;13.456;2022-07-23T04:16:09;10.25;;;4.70;;
25758;SDS011;13604;52.496;13.456;2022-07-23T04:18:34;10.07;;;4.68;;
25758;SDS011;13604;52.496;13.456;2022-07-23T04:21:00;9.98;;;4.13;;
25758;SDS011;13604;52.496;13.456;2022-07-23T04:23:25;9.60;;;4.00;;
25758;SDS011;13604;52.496;13.456;2022-07-23T04:25:50;9.77;;;4.20;;
25758;SDS011;13604;52.496;13.456;2022-07-23T04:28:16;9.60;;;3.92;;
25758;SDS011;13604;52.496;13.456;2022-07-23T04:30:41;11.05;;;4.20;;
25758;SDS011;13604;52.496;13.456;2022-07-23T04:33:06;12.30;;;4.43;;
25758;SDS011;13604;52.496;13.456;2022-07-23T04:35:35;9.50;;;4.10;;
25758;SDS011;13604;52.496;13.456;2022-07-23T04:38:02;13.63;;;4.47;;
25758;SDS011;13604;52.496;13.456;2022-07-23T04:40:28;10.57;;;4.18;;
25758;SDS011;13604;52.496;13.456;2022-07-23T04:42:54;4.75;;;2.88;;
25758;SDS011;13604;52.496;13.456;2022-07-23T04:45:20;10.38;;;3.92;;
25758;SDS011;13604;52.496;13.456;2022-07-23T04:47:45;10.32;;;3.88;;
25758;SDS011;13604;52.496;13.456;2022-07-23T04:50:10;8.82;;;3.85;;
25758;SDS011;13604;52.496;13.456;2022-07-23T04:52:36;11.70;;;4.07;;
25758;SDS011;13604;52.496;13.456;2022-07-23T04:55:01;13.65;;;3.95;;
25758;SDS011;13604;52.496;13.456;2022-07-23T04:57:28;9.52;;;4.00;;
25758;SDS011;13604;52.496;13.456;2022-07-23T04:59:53;6.68;;;3.88;;
25758;SDS011;13604;52.496;13.456;2022-07-23T05:02:18;7.95;;;3.53;;
25758;SDS011;13604;52.496;13.456;2022-07-23T05:04:44;12.07;;;4.38;;
25758;SDS011;13604;52.496;13.456;2022-07-23T05:07:09;12.20;;;3.85;;
25758;SDS011;13604;52.496;13.456;2022-07-23T05:09:34;10.25;;;3.95;;
25758;SDS011;13604;52.496;13.456;2022-07-23T05:12:00;10.30;;;3.92;;
25758;SDS011;13604;52.496;13.456;2022-07-23T05:14:25;10.40;;;4.00;;
25758;SDS011;13604;52.496;13.456;2022-07-23T05:16:51;11.45;;;4.35;;
25758;SDS011;13604;52.496;13.456;2022-07-23T05:19:16;10.07;;;3.80;;
25758;SDS011;13604;52.496;13.456;2022-07-23T05:21:41;15.20;;;3.83;;
25758;SDS011;13604;52.496;13.456;2022-07-23T05:24:06;10.70;;;3.83;;
25758;SDS011;13604;52.496;13.456;2022-07-23T05:26:32;10.85;;;3.80;;
25758;SDS011;13604;52.496;13.456;2022-07-23T05:28:57;6.82;;;3.50;;
25758;SDS011;13604;52.496;13.456;2022-07-23T05:31:22;5.05;;;3.65;;
25758;SDS011;13604;52.496;13.456;2022-07-23T05:33:48;9.13;;;3.90;;
25758;SDS011;13604;52.496;13.456;2022-07-23T05:36:13;13.00;;;4.53;;
25758;SDS011;13604;52.496;13.456;2022-07-23T05:38:38;8.52;;;3.72;;
25758;SDS011;13604;52.496;13.456;2022-07-23T05:41:04;11.68;;;4.50;;
25758;SDS011;13604;52.496;13.456;2022-07-23T05:43:29;9.45;;;4.05;;
25758;SDS011;13604;52.496;13.456;2022-07-23T05:45:54;9.43;;;4.78;;
25758;SDS011;13604;52.496;13.456;2022-07-23T05:48:20;11.80;;;4.63;;
25758;SDS011;13604;52.496;13.456;2022-07-23T05:50:46;9.50;;;4.97;;
25758;SDS011;13604;52.496;13.456;2022-07-23T05:53:11;8.05;;;4.40;;
25758;SDS011;13604;52.496;13.456;2022-07-23T05:55:37;9.75;;;4.32;;
25758;SDS011;13604;52.496;13.456;2022-07-23T05:58:02;8.45;;;4.53;;
25758;SDS011;13604;52.496;13.456;2022-07-23T06:00:28;11.48;;;5.20;;
25758;SDS011;13604;52.496;13.456;2022-07-23T06:02:53;8.27;;;4.32;;
25758;SDS011;13604;52.496;13.456;2022-07-23T06:05:18;11.73;;;4.72;;
25758;SDS011;13604;52.496;13.456;2022-07-23T06:07:45;10.65;;;4.53;;
25758;SDS011;13604;52.496;13.456;2022-07-23T06:10:10;8.82;;;5.25;;
25758;SDS011;13604;52.496;13.456;2022-07-23T06:12:36;9.68;;;4.63;;
25758;SDS011;13604;52.496;13.456;2022-07-23T06:15:02;5.43;;;4.78;;
25758;SDS011;13604;52.496;13.456;2022-07-23T06:17:28;7.47;;;4.70;;
25758;SDS011;13604;52.496;13.456;2022-07-23T06:19:53;9.65;;;5.20;;
25758;SDS011;13604;52.496;13.456;2022-07-23T06:22:19;8.15;;;5.20;;
25758;SDS011;13604;52.496;13.456;2022-07-23T06:24:44;12.35;;;5.40;;
25758;SDS011;13604;52.496;13.456;2022-07-23T06:27:09;7.93;;;5.10;;
25758;SDS011;13604;52.496;13.456;2022-07-23T06:29:35;10.27;;;5.05;;
25758;SDS011;13604;52.496;13.456;2022-07-23T06:32:00;6.93;;;4.50;;
25758;SDS011;13604;52.496;13.456;2022-07-23T06:34:25;9.05;;;4.78;;
25758;SDS011;13604;52.496;13.456;2022-07-23T06:36:51;12.57;;;4.97;;
25758;SDS011;13604;52.496;13.456;2022-07-23T06:39:16;7.18;;;5.28;;
25758;SDS011;13604;52.496;13.456;2022-07-23T06:41:41;7.70;;;5.60;;
25758;SDS011;13604;52.496;13.456;2022-07-23T06:44:07;8.55;;;5.88;;
25758;SDS011;13604;52.496;13.456;2022-07-23T06:46:32;12.52;;;5.63;;
25758;SDS011;13604;52.496;13.456;2022-07-23T06:48:57;7.95;;;5.60;;
25758;SDS011;13604;52.496;13.456;2022-07-23T06:51:23;8.85;;;5.05;;
25758;SDS011;13604;52.496;13.456;2022-07-23T06:53:48;10.63;;;5.40;;
25758;SDS011;13604;52.496;13.456;2022-07-23T06:56:14;8.65;;;5.45;;
25758;SDS011;13604;52.496;13.456;2022-07-23T06:58:39;11.13;;;5.40;;
25758;SDS011;13604;52.496;13.456;2022-07-23T07:01:04;7.25;;;4.90;;
25758;SDS011;13604;52.496;13.456;2022-07-23T07:03:30;7.88;;;5.47;;
25758;SDS011;13604;52.496;13.456;2022-07-23T07:05:55;10.63;;;5.97;;
25758;SDS011;13604;52.496;13.456;2022-07-23T07:08:22;10.73;;;5.13;;
25758;SDS011;13604;52.496;13.456;2022-07-23T07:10:48;10.98;;;5.53;;
25758;SDS011;13604;52.496;13.456;2022-07-23T07:13:13;7.68;;;5.43;;
25758;SDS011;13604;52.496;13.456;2022-07-23T07:15:38;12.77;;;5.38;;
25758;SDS011;13604;52.496;13.456;2022-07-23T07:18:04;14.25;;;6.82;;
25758;SDS011;13604;52.496;13.456;2022-07-23T07:20:29;16.95;;;6.63;;
25758;SDS011;13604;52.496;13.456;2022-07-23T07:22:54;8.48;;;5.60;;
25758;SDS011;13604;52.496;13.456;2022-07-23T07:25:20;13.27;;;7.28;;
25758;SDS011;13604;52.496;13.456;2022-07-23T07:27:45;13.63;;;8.00;;
25758;SDS011;13604;52.496;13.456;2022-07-23T07:30:10;11.73;;;7.07;;
25758;SDS011;13604;52.496;13.456;2022-07-23T07:32:36;13.48;;;6.60;;
25758;SDS011;13604;52.496;13.456;2022-07-23T07:35:02;12.57;;;7.05;;
25758;SDS011;13604;52.496;13.456;2022-07-23T07:37:29;10.73;;;6.60;;
25758;SDS011;13604;52.496;13.456;2022-07-23T07:39:54;11.40;;;5.85;;
25758;SDS011;13604;52.496;13.456;2022-07-23T07:42:19;9.20;;;5.63;;
25758;SDS011;13604;52.496;13.456;2022-07-23T07:44:45;10.75;;;5.78;;
25758;SDS011;13604;52.496;13.456;2022-07-23T07:47:10;11.20;;;5.60;;
25758;SDS011;13604;52.496;13.456;2022-07-23T07:49:35;8.68;;;5.43;;
25758;SDS011;13604;52.496;13.456;2022-07-23T07:52:01;11.00;;;5.55;;
25758;SDS011;13604;52.496;13.456;2022-07-23T07:54:26;9.88;;;5.55;;
25758;SDS011;13604;52.496;13.456;2022-07-23T07:56:51;12.55;;;5.88;;
25758;SDS011;13604;52.496;13.456;2022-07-23T07:59:16;11.48;;;4.90;;
25758;SDS011;13604;52.496;13.456;2022-07-23T08:01:42;11.85;;;6.10;;
25758;SDS011;13604;52.496;13.456;2022-07-23T08:04:07;10.52;;;5.53;;
25758;SDS011;13604;52.496;13.456;2022-07-23T08:06:32;9.38;;;5.85;;
25758;SDS011;13604;52.496;13.456;2022-07-23T08:08:58;11.73;;;5.15;;
25758;SDS011;13604;52.496;13.456;2022-07-23T08:11:23;8.60;;;4.90;;
25758;SDS011;13604;52.496;13.456;2022-07-23T08:13:48;13.50;;;6.03;;
25758;SDS011;13604;52.496;13.456;2022-07-23T08:16:14;7.57;;;4.80;;
25758;SDS011;13604;52.496;13.456;2022-07-23T08:18:39;8.60;;;5.28;;
25758;SDS011;13604;52.496;13.456;2022-07-23T08:21:04;11.55;;;5.43;;
25758;SDS011;13604;52.496;13.456;2022-07-23T08:23:30;11.52;;;4.82;;
25758;SDS011;13604;52.496;13.456;2022-07-23T08:25:56;8.18;;;4.70;;
25758;SDS011;13604;52.496;13.456;2022-07-23T08:28:22;10.73;;;5.15;;
25758;SDS011;13604;52.496;13.456;2022-07-23T08:30:47;6.97;;;4.03;;
25758;SDS011;13604;52.496;13.456;2022-07-23T08:33:13;10.60;;;3.60;;
25758;SDS011;13604;52.496;13.456;2022-07-23T08:35:45;11.52;;;3.67;;
25758;SDS011;13604;52.496;13.456;2022-07-23T08:38:12;5.57;;;3.17;;
25758;SDS011;13604;52.496;13.456;2022-07-23T08:40:41;8.70;;;3.67;;
25758;SDS011;13604;52.496;13.456;2022-07-23T08:43:13;5.07;;;3.70;;
25758;SDS011;13604;52.496;13.456;2022-07-23T08:45:41;8.05;;;3.70;;
25758;SDS011;13604;52.496;13.456;2022-07-23T08:48:13;6.15;;;3.45;;
25758;SDS011;13604;52.496;13.456;2022-07-23T08:50:46;6.53;;;3.03;;
25758;SDS011;13604;52.496;13.456;2022-07-23T08:53:14;5.75;;;3.28;;
25758;SDS011;13604;52.496;13.456;2022-07-23T08:55:42;8.10;;;2.85;;
25758;SDS011;13604;52.496;13.456;2022-07-23T08:58:11;9.77;;;3.30;;
25758;SDS011;13604;52.496;13.456;2022-07-23T09:00:38;9.43;;;2.83;;
25758;SDS011;13604;52.496;13.456;2022-07-23T09:03:03;4.90;;;2.88;;
25758;SDS011;13604;52.496;13.456;2022-07-23T09:05:28;6.68;;;2.80;;
25758;SDS011;13604;52.496;13.456;2022-07-23T09:10:49;5.40;;;2.50;;
25758;SDS011;13604;52.496;13.456;2022-07-23T09:13:23;4.72;;;2.30;;
25758;SDS011;13604;52.496;13.456;2022-07-23T09:15:51;9.07;;;2.72;;
25758;SDS011;13604;52.496;13.456;2022-07-23T09:18:17;6.90;;;2.65;;
25758;SDS011;13604;52.496;13.456;2022-07-23T09:20:45;5.20;;;2.55;;
25758;SDS011;13604;52.496;13.456;2022-07-23T09:23:11;5.75;;;2.95;;
25758;SDS011;13604;52.496;13.456;2022-07-23T09:25:36;9.45;;;3.42;;
25758;SDS011;13604;52.496;13.456;2022-07-23T09:28:01;8.38;;;2.72;;
25758;SDS011;13604;52.496;13.456;2022-07-23T09:30:28;7.75;;;2.75;;
25758;SDS011;13604;52.496;13.456;2022-07-23T09:33:14;7.93;;;2.90;;
25758;SDS011;13604;52.496;13.456;2022-07-23T09:35:53;9.00;;;2.67;;
25758;SDS011;13604;52.496;13.456;2022-07-23T09:38:20;8.13;;;2.85;;
25758;SDS011;13604;52.496;13.456;2022-07-23T09:41:04;7.88;;;2.88;;
25758;SDS011;13604;52.496;13.456;2022-07-23T09:43:31;7.30;;;3.15;;
25758;SDS011;13604;52.496;13.456;2022-07-23T09:46:16;7.10;;;3.38;;
25758;SDS011;13604;52.496;13.456;2022-07-23T09:48:55;8.30;;;3.47;;
25758;SDS011;13604;52.496;13.456;2022-07-23T09:51:21;6.25;;;3.55;;
25758;SDS011;13604;52.496;13.456;2022-07-23T09:53:51;7.28;;;3.10;;
25758;SDS011;13604;52.496;13.456;2022-07-23T09:56:17;7.13;;;2.85;;
25758;SDS011;13604;52.496;13.456;2022-07-23T09:58:44;5.00;;;3.28;;
25758;SDS011;13604;52.496;13.456;2022-07-23T10:01:12;10.07;;;3.40;;
25758;SDS011;13604;52.496;13.456;2022-07-23T10:03:38;8.40;;;3.45;;
25758;SDS011;13604;52.496;13.456;2022-07-23T10:06:05;8.10;;;2.95;;
25758;SDS011;13604;52.496;13.456;2022-07-23T10:08:30;5.28;;;2.75;;
25758;SDS011;13604;52.496;13.456;2022-07-23T10:10:57;5.65;;;3.10;;
25758;SDS011;13604;52.496;13.456;2022-07-23T10:13:24;4.10;;;2.55;;
25758;SDS011;13604;52.496;13.456;2022-07-23T10:16:08;8.77;;;3.17;;
25758;SDS011;13604;52.496;13.456;2022-07-23T10:18:33;5.55;;;3.25;;
25758;SDS011;13604;52.496;13.456;2022-07-23T10:20:59;3.75;;;3.00;;
25758;SDS011;13604;52.496;13.456;2022-07-23T10:23:28;4.18;;;2.63;;
25758;SDS011;13604;52.496;13.456;2022-07-23T10:28:56;7.03;;;2.90;;
25758;SDS011;13604;52.496;13.456;2022-07-23T10:31:38;5.13;;;2.25;;
25758;SDS011;13604;52.496;13.456;2022-07-23T10:36:59;4.88;;;2.45;;
25758;SDS011;13604;52.496;13.456;2022-07-23T10:39:34;3.50;;;2.22;;
25758;SDS011;13604;52.496;13.456;2022-07-23T10:42:09;8.32;;;3.05;;
25758;SDS011;13604;52.496;13.456;2022-07-23T10:44:39;4.85;;;2.25;;
25758;SDS011;13604;52.496;13.456;2022-07-23T10:47:05;5.13;;;2.80;;
25758;SDS011;13604;52.496;13.456;2022-07-23T10:49:43;6.07;;;2.58;;
25758;SDS011;13604;52.496;13.456;2022-07-23T10:52:19;4.35;;;2.25;;
25758;SDS011;13604;52.496;13.456;2022-07-23T10:54:53;8.60;;;2.80;;
25758;SDS011;13604;52.496;13.456;2022-07-23T10:57:20;6.50;;;3.00;;
25758;SDS011;13604;52.496;13.456;2022-07-23T11:02:26;5.25;;;2.20;;
25758;SDS011;13604;52.496;13.456;2022-07-23T11:04:53;5.40;;;2.65;;
25758;SDS011;13604;52.496;13.456;2022-07-23T11:07:19;6.30;;;2.10;;
25758;SDS011;13604;52.496;13.456;2022-07-23T11:09:45;5.07;;;2.65;;
25758;SDS011;13604;52.496;13.456;2022-07-23T11:15:00;6.07;;;2.58;;
25758;SDS011;13604;52.496;13.456;2022-07-23T11:17:38;5.00;;;2.65;;
25758;SDS011;13604;52.496;13.456;2022-07-23T11:20:22;3.65;;;2.20;;
25758;SDS011;13604;52.496;13.456;2022-07-23T11:22:49;9.73;;;2.53;;
25758;SDS011;13604;52.496;13.456;2022-07-23T11:27:48;2.75;;;2.00;;
25758;SDS011;13604;52.496;13.456;2022-07-23T11:32:53;7.40;;;2.55;;
25758;SDS011;13604;52.496;13.456;2022-07-23T11:37:46;4.15;;;2.45;;
25758;SDS011;13604;52.496;13.456;2022-07-23T11:40:13;6.07;;;2.80;;
25758;SDS011;13604;52.496;13.456;2022-07-23T11:42:50;4.22;;;2.38;;
25758;SDS011;13604;52.496;13.456;2022-07-23T11:45:17;3.13;;;2.17;;
25758;SDS011;13604;52.496;13.456;2022-07-23T11:47:42;7.78;;;2.85;;
25758;SDS011;13604;52.496;13.456;2022-07-23T11:50:08;6.30;;;2.40;;
25758;SDS011;13604;52.496;13.456;2022-07-23T11:52:33;6.22;;;2.78;;
25758;SDS011;13604;52.496;13.456;2022-07-23T11:54:59;5.47;;;2.42;;
25758;SDS011;13604;52.496;13.456;2022-07-23T11:57:31;3.47;;;2.45;;
25758;SDS011;13604;52.496;13.456;2022-07-23T12:00:00;4.28;;;2.35;;
25758;SDS011;13604;52.496;13.456;2022-07-23T12:02:50;5.32;;;2.17;;
25758;SDS011;13604;52.496;13.456;2022-07-23T12:05:19;7.78;;;2.67;;
25758;SDS011;13604;52.496;13.456;2022-07-23T12:07:50;6.00;;;2.03;;
25758;SDS011;13604;52.496;13.456;2022-07-23T12:10:21;4.60;;;2.40;;
25758;SDS011;13604;52.496;13.456;2022-07-23T12:13:08;5.40;;;2.85;;
25758;SDS011;13604;52.496;13.456;2022-07-23T12:15:39;4.50;;;2.72;;
25758;SDS011;13604;52.496;13.456;2022-07-23T12:18:07;6.32;;;2.42;;
25758;SDS011;13604;52.496;13.456;2022-07-23T12:20:37;6.93;;;2.63;;
25758;SDS011;13604;52.496;13.456;2022-07-23T12:23:05;4.25;;;2.65;;
25758;SDS011;13604;52.496;13.456;2022-07-23T12:25:32;6.72;;;3.20;;
25758;SDS011;13604;52.496;13.456;2022-07-23T12:28:21;5.97;;;2.97;;
25758;SDS011;13604;52.496;13.456;2022-07-23T12:31:12;7.63;;;3.08;;
25758;SDS011;13604;52.496;13.456;2022-07-23T12:33:58;4.88;;;2.92;;
25758;SDS011;13604;52.496;13.456;2022-07-23T12:36:43;3.80;;;2.20;;
25758;SDS011;13604;52.496;13.456;2022-07-23T12:39:09;10.02;;;3.08;;
25758;SDS011;13604;52.496;13.456;2022-07-23T12:41:50;5.75;;;2.63;;
25758;SDS011;13604;52.496;13.456;2022-07-23T12:44:17;6.78;;;2.90;;
25758;SDS011;13604;52.496;13.456;2022-07-23T12:46:42;6.35;;;3.08;;
25758;SDS011;13604;52.496;13.456;2022-07-23T12:49:07;5.00;;;2.65;;
25758;SDS011;13604;52.496;13.456;2022-07-23T12:51:33;5.60;;;2.40;;
25758;SDS011;13604;52.496;13.456;2022-07-23T12:54:05;4.47;;;3.03;;
25758;SDS011;13604;52.496;13.456;2022-07-23T12:56:34;4.47;;;2.90;;
25758;SDS011;13604;52.496;13.456;2022-07-23T12:59:09;6.70;;;2.60;;
25758;SDS011;13604;52.496;13.456;2022-07-23T13:01:39;5.80;;;2.95;;
25758;SDS011;13604;52.496;13.456;2022-07-23T13:04:11;6.60;;;3.00;;
25758;SDS011;13604;52.496;13.456;2022-07-23T13:06:44;8.00;;;3.15;;
25758;SDS011;13604;52.496;13.456;2022-07-23T13:09:15;9.63;;;3.35;;
25758;SDS011;13604;52.496;13.456;2022-07-23T13:11:43;4.95;;;2.97;;
25758;SDS011;13604;52.496;13.456;2022-07-23T13:14:10;6.00;;;3.30;;
25758;SDS011;13604;52.496;13.456;2022-07-23T13:16:37;9.70;;;3.60;;
25758;SDS011;13604;52.496;13.456;2022-07-23T13:19:02;8.93;;;3.65;;
25758;SDS011;13604;52.496;13.456;2022-07-23T13:21:28;6.32;;;3.22;;
25758;SDS011;13604;52.496;13.456;2022-07-23T13:23:54;8.93;;;3.20;;
25758;SDS011;13604;52.496;13.456;2022-07-23T13:26:20;9.60;;;2.70;;
25758;SDS011;13604;52.496;13.456;2022-07-23T13:28:45;4.40;;;2.70;;
25758;SDS011;13604;52.496;13.456;2022-07-23T13:31:10;5.28;;;2.90;;
25758;SDS011;13604;52.496;13.456;2022-07-23T13:33:36;4.68;;;2.67;;
25758;SDS011;13604;52.496;13.456;2022-07-23T13:36:01;5.28;;;3.20;;
25758;SDS011;13604;52.496;13.456;2022-07-23T13:38:28;5.03;;;3.00;;
25758;SDS011;13604;52.496;13.456;2022-07-23T13:40:54;6.50;;;2.47;;
25758;SDS011;13604;52.496;13.456;2022-07-23T13:43:22;4.72;;;2.80;;
25758;SDS011;13604;52.496;13.456;2022-07-23T13:45:49;4.88;;;3.30;;
25758;SDS011;13604;52.496;13.456;2022-07-23T13:48:16;5.13;;;3.08;;
25758;SDS011;13604;52.496;13.456;2022-07-23T13:50:42;5.97;;;3.00;;
25758;SDS011;13604;52.496;13.456;2022-07-23T13:53:09;5.20;;;3.10;;
25758;SDS011;13604;52.496;13.456;2022-07-23T13:55:39;4.47;;;3.05;;
25758;SDS011;13604;52.496;13.456;2022-07-23T13:58:06;6.75;;;2.85;;
25758;SDS011;13604;52.496;13.456;2022-07-23T14:00:33;6.38;;;2.90;;
25758;SDS011;13604;52.496;13.456;2022-07-23T14:03:00;4.97;;;3.00;;
25758;SDS011;13604;52.496;13.456;2022-07-23T14:05:26;5.85;;;3.10;;
25758;SDS011;13604;52.496;13.456;2022-07-23T14:07:52;6.05;;;2.75;;
25758;SDS011;13604;52.496;13.456;2022-07-23T14:10:18;6.07;;;3.33;;
25758;SDS011;13604;52.496;13.456;2022-07-23T14:12:45;3.88;;;2.90;;
25758;SDS011;13604;52.496;13.456;2022-07-23T14:15:11;6.70;;;2.88;;
25758;SDS011;13604;52.496;13.456;2022-07-23T14:17:38;3.70;;;2.60;;
25758;SDS011;13604;52.496;13.456;2022-07-23T14:20:04;5.30;;;2.45;;
25758;SDS011;13604;52.496;13.456;2022-07-23T14:22:31;8.02;;;2.78;;
25758;SDS011;13604;52.496;13.456;2022-07-23T14:24:56;3.78;;;2.38;;
25758;SDS011;13604;52.496;13.456;2022-07-23T14:27:23;3.47;;;2.38;;
25758;SDS011;13604;52.496;13.456;2022-07-23T14:29:49;3.25;;;2.20;;
25758;SDS011;13604;52.496;13.456;2022-07-23T14:32:14;2.78;;;2.30;;
25758;SDS011;13604;52.496;13.456;2022-07-23T14:34:39;5.85;;;2.33;;
25758;SDS011;13604;52.496;13.456;2022-07-23T14:37:05;5.65;;;2.25;;
25758;SDS011;13604;52.496;13.456;2022-07-23T14:39:30;3.15;;;2.00;;
25758;SDS011;13604;52.496;13.456;2022-07-23T14:41:55;2.85;;;2.08;;
25758;SDS011;13604;52.496;13.456;2022-07-23T14:44:21;3.75;;;2.17;;
25758;SDS011;13604;52.496;13.456;2022-07-23T14:46:46;3.65;;;2.05;;
25758;SDS011;13604;52.496;13.456;2022-07-23T14:49:11;3.53;;;2.00;;
25758;SDS011;13604;52.496;13.456;2022-07-23T14:51:37;3.97;;;2.30;;